createdAt,value
2023-04-27T00:02:08.322Z,51.89
2023-04-27T00:04:35.722Z,51.91
2023-04-27T00:07:02.707Z,51.92
2023-04-27T00:09:29.709Z,52.03
2023-04-27T00:11:56.739Z,52.07
2023-04-27T00:14:24.040Z,52.00
2023-04-27T00:16:52.593Z,52.16
2023-04-27T00:19:19.677Z,52.23
2023-04-27T00:21:46.720Z,52.17
2023-04-27T00:24:13.654Z,52.24
2023-04-27T00:26:40.769Z,52.23
2023-04-27T00:29:07.760Z,52.15
2023-04-27T00:31:34.667Z,52.37
2023-04-27T00:34:01.675Z,52.31
2023-04-27T00:36:29.546Z,52.34
2023-04-27T00:38:56.623Z,52.31
2023-04-27T00:41:24.616Z,52.50
2023-04-27T00:43:51.540Z,52.24
2023-04-27T00:46:20.014Z,52.21
2023-04-27T00:48:47.240Z,52.19
2023-04-27T00:51:15.977Z,52.15
2023-04-27T00:53:43.840Z,52.10
2023-04-27T00:56:11.271Z,52.22
2023-04-27T00:58:38.231Z,52.13
2023-04-27T01:01:06.037Z,52.26
2023-04-27T01:03:33.289Z,52.16
2023-04-27T01:06:01.950Z,52.15
2023-04-27T01:08:29.826Z,52.05
2023-04-27T01:10:57.021Z,52.06
2023-04-27T01:13:25.005Z,52.07
2023-04-27T01:15:51.944Z,52.17
2023-04-27T01:18:19.908Z,52.58
2023-04-27T01:20:46.863Z,52.52
2023-04-27T01:23:16.818Z,52.83
2023-04-27T01:25:44.535Z,52.79
2023-04-27T01:28:11.555Z,52.79
2023-04-27T01:30:39.576Z,52.99
2023-04-27T01:33:06.610Z,52.98
2023-04-27T01:35:33.554Z,52.80
2023-04-27T01:38:00.982Z,52.86
2023-04-27T01:40:35.445Z,52.80
2023-04-27T01:43:03.288Z,52.80
2023-04-27T01:45:30.308Z,52.98
2023-04-27T01:47:59.712Z,53.08
2023-04-27T01:50:27.648Z,53.08
2023-04-27T01:52:54.864Z,53.18
2023-04-27T01:55:21.915Z,53.32
2023-04-27T01:57:48.845Z,53.44
2023-04-27T02:00:16.255Z,53.36
2023-04-27T02:02:51.501Z,53.36
2023-04-27T02:05:18.885Z,53.55
2023-04-27T02:07:47.625Z,53.35
2023-04-27T02:10:16.743Z,53.65
2023-04-27T02:12:45.928Z,53.64
2023-04-27T02:15:12.974Z,53.67
2023-04-27T02:17:40.273Z,53.62
2023-04-27T02:20:08.203Z,53.51
2023-04-27T02:22:35.195Z,53.54
2023-04-27T02:25:02.813Z,53.71
2023-04-27T02:27:29.983Z,53.59
2023-04-27T02:29:58.349Z,53.73
2023-04-27T02:32:25.944Z,53.71
2023-04-27T02:34:53.429Z,53.70
2023-04-27T02:37:20.454Z,53.94
2023-04-27T02:39:49.850Z,53.89
2023-04-27T02:42:17.001Z,53.92
2023-04-27T02:44:44.185Z,53.84
2023-04-27T02:47:12.740Z,53.98
2023-04-27T02:49:40.412Z,54.07
2023-04-27T02:52:09.330Z,53.90
2023-04-27T02:54:36.280Z,54.00
2023-04-27T02:57:03.803Z,54.14
2023-04-27T02:59:30.949Z,54.01
2023-04-27T03:01:58.428Z,54.01
2023-04-27T03:04:28.396Z,54.06
2023-04-27T03:06:55.901Z,54.12
2023-04-27T03:09:23.067Z,54.08
2023-04-27T03:11:50.932Z,54.18
2023-04-27T03:14:17.952Z,54.22
2023-04-27T03:16:45.057Z,54.29
2023-04-27T03:19:13.990Z,54.31
2023-04-27T03:21:41.156Z,54.32
2023-04-27T03:24:09.295Z,54.57
2023-04-27T03:26:36.347Z,54.45
2023-04-27T03:29:04.522Z,54.46
2023-04-27T03:31:31.922Z,54.57
2023-04-27T03:33:59.122Z,54.48
2023-04-27T03:36:27.536Z,54.85
2023-04-27T03:38:54.568Z,54.83
2023-04-27T03:41:22.422Z,54.69
2023-04-27T03:43:51.462Z,54.79
2023-04-27T03:46:18.642Z,54.87
2023-04-27T03:48:47.450Z,54.74
2023-04-27T03:51:15.534Z,54.77
2023-04-27T03:53:45.166Z,54.93
2023-04-27T03:56:13.756Z,54.84
2023-04-27T03:58:41.064Z,54.79
2023-04-27T04:01:19.588Z,54.98
2023-04-27T04:03:48.592Z,54.85
2023-04-27T04:06:15.833Z,55.04
2023-04-27T04:08:43.003Z,54.87
2023-04-27T04:11:10.535Z,55.17
2023-04-27T04:13:37.816Z,55.29
2023-04-27T04:16:06.036Z,55.46
2023-04-27T04:18:37.338Z,55.43
2023-04-27T04:21:06.175Z,55.60
2023-04-27T04:23:34.188Z,55.88
2023-04-27T04:26:02.502Z,55.90
2023-04-27T04:28:33.747Z,55.65
2023-04-27T04:31:06.164Z,55.79
2023-04-27T04:33:34.024Z,55.60
2023-04-27T04:36:04.750Z,55.79
2023-04-27T04:38:33.262Z,56.02
2023-04-27T04:41:03.249Z,56.13
2023-04-27T04:43:33.567Z,56.22
2023-04-27T04:46:05.795Z,56.07
2023-04-27T04:48:34.046Z,56.15
2023-04-27T04:51:02.187Z,56.41
2023-04-27T04:53:30.855Z,56.16
2023-04-27T04:55:57.857Z,56.19
2023-04-27T04:58:25.170Z,56.24
2023-04-27T05:00:53.451Z,56.07
2023-04-27T05:03:20.696Z,56.14
2023-04-27T05:05:48.931Z,56.08
2023-04-27T05:08:17.447Z,56.14
2023-04-27T05:10:57.798Z,56.02
2023-04-27T05:13:28.299Z,56.23
2023-04-27T05:15:55.930Z,56.03
2023-04-27T05:18:22.880Z,56.16
2023-04-27T05:20:49.873Z,56.36
2023-04-27T05:23:18.406Z,56.31
2023-04-27T05:25:45.377Z,56.19
2023-04-27T05:28:12.744Z,56.12
2023-04-27T05:30:41.144Z,56.50
2023-04-27T05:33:08.307Z,56.37
2023-04-27T05:35:35.841Z,56.39
2023-04-27T05:38:03.258Z,56.36
2023-04-27T05:40:31.504Z,56.25
2023-04-27T05:42:58.496Z,56.58
2023-04-27T05:45:27.004Z,56.60
2023-04-27T05:47:55.377Z,56.89
2023-04-27T05:50:22.724Z,57.07
2023-04-27T05:52:49.683Z,56.94
2023-04-27T05:55:16.702Z,56.72
2023-04-27T05:57:43.704Z,56.71
2023-04-27T06:00:13.131Z,56.49
2023-04-27T06:02:40.399Z,56.60
2023-04-27T06:05:08.300Z,56.38
2023-04-27T06:07:37.790Z,56.33
2023-04-27T06:10:05.553Z,56.24
2023-04-27T06:12:32.818Z,56.39
2023-04-27T06:15:00.702Z,56.36
2023-04-27T06:17:28.596Z,56.31
2023-04-27T06:19:55.637Z,55.90
2023-04-27T06:22:22.714Z,55.82
2023-04-27T06:24:49.721Z,55.80
2023-04-27T06:27:16.808Z,55.72
2023-04-27T06:29:43.769Z,55.48
2023-04-27T06:32:11.455Z,55.39
2023-04-27T06:34:39.069Z,54.89
2023-04-27T06:37:07.160Z,54.76
2023-04-27T06:39:35.606Z,54.94
2023-04-27T06:42:04.721Z,54.64
2023-04-27T06:44:32.638Z,54.52
2023-04-27T06:47:00.166Z,54.19
2023-04-27T06:49:27.546Z,54.03
2023-04-27T06:51:54.738Z,53.91
2023-04-27T06:54:21.959Z,53.70
2023-04-27T06:56:49.079Z,53.47
2023-04-27T06:59:16.369Z,53.53
2023-04-27T07:01:44.282Z,53.19
2023-04-27T07:04:15.652Z,52.41
2023-04-27T07:06:42.917Z,52.35
2023-04-27T07:09:20.148Z,52.12
2023-04-27T07:12:03.307Z,51.76
2023-04-27T07:14:30.708Z,51.91
2023-04-27T07:16:57.858Z,51.96
2023-04-27T07:19:25.802Z,52.03
2023-04-27T07:21:53.431Z,51.49
2023-04-27T07:24:23.417Z,51.60
2023-04-27T07:26:50.319Z,51.21
2023-04-27T07:29:27.204Z,50.72
2023-04-27T07:31:55.985Z,50.70
2023-04-27T07:34:25.037Z,50.57
2023-04-27T07:36:54.735Z,50.33
2023-04-27T07:39:21.712Z,49.90
2023-04-27T07:41:50.350Z,49.75
2023-04-27T07:44:21.201Z,49.52
2023-04-27T07:46:49.256Z,49.17
2023-04-27T07:49:16.876Z,48.73
2023-04-27T07:51:43.994Z,48.55
2023-04-27T07:54:10.998Z,48.11
2023-04-27T07:56:42.552Z,47.84
2023-04-27T07:59:09.664Z,47.17
2023-04-27T08:01:37.111Z,46.52
2023-04-27T08:04:04.746Z,46.76
2023-04-27T08:06:33.330Z,46.86
2023-04-27T08:09:02.304Z,46.17
2023-04-27T08:11:29.606Z,46.70
2023-04-27T08:13:56.595Z,46.22
2023-04-27T08:16:23.751Z,46.21
2023-04-27T08:18:51.268Z,46.09
2023-04-27T08:21:18.249Z,45.95
2023-04-27T08:23:45.715Z,46.22
2023-04-27T08:26:16.758Z,45.43
2023-04-27T08:28:43.861Z,45.85
2023-04-27T08:31:10.907Z,45.83
2023-04-27T08:33:38.356Z,45.97
2023-04-27T08:36:05.868Z,45.82
2023-04-27T08:38:35.114Z,46.30
2023-04-27T08:41:14.152Z,46.27
2023-04-27T08:43:50.342Z,45.99
2023-04-27T08:46:22.114Z,45.50
2023-04-27T08:48:53.188Z,45.51
2023-04-27T08:51:21.628Z,45.84
2023-04-27T08:53:57.085Z,45.51
2023-04-27T08:56:27.048Z,45.13
2023-04-27T08:58:55.986Z,44.88
2023-04-27T09:01:24.826Z,44.67
2023-04-27T09:04:09.281Z,44.61
2023-04-27T09:06:36.849Z,45.00
2023-04-27T09:09:04.628Z,44.42
2023-04-27T09:11:35.388Z,44.81
2023-04-27T09:14:23.518Z,45.34
2023-04-27T09:16:59.802Z,44.64
2023-04-27T09:19:28.930Z,44.82
2023-04-27T09:22:11.682Z,45.64
2023-04-27T09:24:39.045Z,44.99
2023-04-27T09:27:07.596Z,44.28
2023-04-27T09:29:40.098Z,44.29
2023-04-27T09:32:21.315Z,44.35
2023-04-27T09:34:48.973Z,43.26
2023-04-27T09:37:16.914Z,44.19
2023-04-27T09:39:46.434Z,44.63
2023-04-27T09:42:14.012Z,45.32
2023-04-27T09:44:41.375Z,45.55
2023-04-27T09:47:08.996Z,45.45
2023-04-27T09:49:36.492Z,45.09
2023-04-27T09:52:04.441Z,45.11
2023-04-27T09:54:34.789Z,43.72
2023-04-27T09:57:20.218Z,43.72
2023-04-27T10:00:12.089Z,43.51
2023-04-27T10:02:53.332Z,44.11
2023-04-27T10:05:44.104Z,43.22
2023-04-27T10:08:13.147Z,43.97
2023-04-27T10:10:48.173Z,42.64
2023-04-27T10:13:25.742Z,40.61
2023-04-27T10:15:54.415Z,42.34
2023-04-27T10:18:31.389Z,41.41
2023-04-27T10:21:20.255Z,40.11
2023-04-27T10:23:49.896Z,41.82
2023-04-27T10:26:28.941Z,42.61
2023-04-27T10:29:07.404Z,42.63
2023-04-27T10:31:37.513Z,41.81
2023-04-27T10:34:11.915Z,41.33
2023-04-27T10:36:39.896Z,40.69
2023-04-27T10:39:17.013Z,39.59
2023-04-27T10:41:55.633Z,39.34
2023-04-27T10:44:28.927Z,39.11
2023-04-27T10:46:57.969Z,38.17
2023-04-27T10:49:24.895Z,38.47
2023-04-27T10:51:53.389Z,38.19
2023-04-27T10:54:22.120Z,38.05
2023-04-27T10:56:49.010Z,38.03
2023-04-27T10:59:16.220Z,38.61
2023-04-27T11:01:43.538Z,38.01
2023-04-27T11:04:10.773Z,37.75
2023-04-27T11:06:46.422Z,37.89
2023-04-27T11:09:14.609Z,37.71
2023-04-27T11:11:46.377Z,38.23
2023-04-27T11:14:20.020Z,37.57
2023-04-27T11:16:50.564Z,36.46
2023-04-27T11:19:17.798Z,35.56
2023-04-27T11:21:44.933Z,34.59
2023-04-27T11:24:15.152Z,35.68
2023-04-27T11:26:42.604Z,34.76
2023-04-27T11:29:12.768Z,34.83
2023-04-27T11:31:52.160Z,34.76
2023-04-27T11:34:22.774Z,35.35
2023-04-27T11:37:17.208Z,35.97
2023-04-27T11:39:46.782Z,36.66
2023-04-27T11:42:21.069Z,36.37
2023-04-27T11:44:56.935Z,37.58
2023-04-27T11:47:27.992Z,37.62
2023-04-27T11:49:57.495Z,38.45
2023-04-27T11:52:36.902Z,38.33
2023-04-27T11:55:04.868Z,38.98
2023-04-27T11:57:36.995Z,38.75
2023-04-27T12:00:11.480Z,37.90
2023-04-27T12:02:44.271Z,38.02
2023-04-27T12:05:13.750Z,37.53
2023-04-27T12:07:41.688Z,37.08
2023-04-27T12:10:09.436Z,35.32
2023-04-27T12:12:36.494Z,35.58
2023-04-27T12:15:06.504Z,35.98
2023-04-27T12:17:34.133Z,36.74
2023-04-27T12:20:01.789Z,36.96
2023-04-27T12:22:29.076Z,34.38
2023-04-27T12:24:58.198Z,34.02
2023-04-27T12:27:26.699Z,33.14
2023-04-27T12:29:54.726Z,33.59
2023-04-27T12:32:21.957Z,33.74
2023-04-27T12:34:48.987Z,33.70
2023-04-27T12:37:15.983Z,32.13
2023-04-27T12:39:43.341Z,32.92
2023-04-27T12:42:10.384Z,32.00
2023-04-27T12:44:37.444Z,32.39
2023-04-27T12:47:05.694Z,31.34
2023-04-27T12:49:32.949Z,31.06
2023-04-27T12:52:00.345Z,31.39
2023-04-27T12:54:27.281Z,32.17
2023-04-27T12:56:54.227Z,32.30
2023-04-27T12:59:22.487Z,32.62
2023-04-27T13:01:49.599Z,31.91
2023-04-27T13:04:21.549Z,31.91
2023-04-27T13:06:49.343Z,32.05
2023-04-27T13:09:20.034Z,30.90
2023-04-27T13:11:47.268Z,31.04
2023-04-27T13:14:14.415Z,30.57
2023-04-27T13:16:42.434Z,31.67
2023-04-27T13:19:09.976Z,32.45
2023-04-27T13:21:37.364Z,30.98
2023-04-27T13:24:04.466Z,30.72
2023-04-27T13:26:31.565Z,30.82
2023-04-27T13:28:58.914Z,30.97
2023-04-27T13:31:26.028Z,30.09
2023-04-27T13:33:54.092Z,29.78
2023-04-27T13:36:21.266Z,30.40
2023-04-27T13:38:49.434Z,30.46
2023-04-27T13:41:16.860Z,30.09
2023-04-27T13:43:44.047Z,30.38
2023-04-27T13:46:11.113Z,30.04
2023-04-27T13:48:38.287Z,29.86
2023-04-27T13:51:05.318Z,29.56
2023-04-27T13:53:32.338Z,30.95
2023-04-27T13:56:00.487Z,29.98
2023-04-27T13:58:29.427Z,30.27
2023-04-27T14:00:58.361Z,30.36
2023-04-27T14:03:25.579Z,29.39
2023-04-27T14:05:52.933Z,29.13
2023-04-27T14:08:20.067Z,29.41
2023-04-27T14:10:47.159Z,29.16
2023-04-27T14:13:14.964Z,29.06
2023-04-27T14:15:42.422Z,29.51
2023-04-27T14:18:10.146Z,30.01
2023-04-27T14:20:43.215Z,29.24
2023-04-27T14:23:11.884Z,28.36
2023-04-27T14:25:39.434Z,28.65
2023-04-27T14:28:06.702Z,28.19
2023-04-27T14:30:35.042Z,28.55
2023-04-27T14:33:03.179Z,29.25
2023-04-27T14:35:30.356Z,29.51
2023-04-27T14:38:02.503Z,29.70
2023-04-27T14:40:31.490Z,29.78
2023-04-27T14:43:00.038Z,30.73
2023-04-27T14:45:36.670Z,30.96
2023-04-27T14:48:07.299Z,31.21
2023-04-27T14:50:35.237Z,31.45
2023-04-27T14:53:05.088Z,31.76
2023-04-27T14:55:33.209Z,31.53
2023-04-27T14:58:00.355Z,31.59
2023-04-27T15:00:27.288Z,32.08
2023-04-27T15:02:55.920Z,32.23
2023-04-27T15:05:23.106Z,32.39
2023-04-27T15:07:50.159Z,32.48
2023-04-27T15:10:17.247Z,32.70
2023-04-27T15:12:55.185Z,32.61
2023-04-27T15:15:23.758Z,32.53
2023-04-27T15:17:50.848Z,32.64
2023-04-27T15:20:17.894Z,32.95
2023-04-27T15:22:44.950Z,32.79
2023-04-27T15:25:12.443Z,32.23
2023-04-27T15:27:41.892Z,32.38
2023-04-27T15:30:09.186Z,32.65
2023-04-27T15:32:36.564Z,32.71
2023-04-27T15:35:06.236Z,32.69
2023-04-27T15:37:35.201Z,32.89
2023-04-27T15:40:04.217Z,33.27
2023-04-27T15:42:31.345Z,33.15
2023-04-27T15:44:59.251Z,33.32
2023-04-27T15:47:32.798Z,33.27
2023-04-27T15:49:59.775Z,33.28
2023-04-27T15:52:27.411Z,33.36
2023-04-27T15:54:56.387Z,33.19
2023-04-27T15:57:23.307Z,33.45
2023-04-27T15:59:50.305Z,33.87
2023-04-27T16:02:18.923Z,33.75
2023-04-27T16:04:50.041Z,34.34
2023-04-27T16:07:17.074Z,34.55
2023-04-27T16:09:44.303Z,34.38
2023-04-27T16:12:11.376Z,34.53
2023-04-27T16:14:38.561Z,34.43
2023-04-27T16:17:05.724Z,34.32
2023-04-27T16:19:33.379Z,34.52
2023-04-27T16:22:01.851Z,34.71
2023-04-27T16:24:31.674Z,34.81
2023-04-27T16:27:00.168Z,34.97
2023-04-27T16:29:27.200Z,34.87
2023-04-27T16:31:54.593Z,34.84
2023-04-27T16:34:21.967Z,34.66
2023-04-27T16:36:50.064Z,34.73
2023-04-27T16:39:19.752Z,34.24
2023-04-27T16:41:47.264Z,34.67
2023-04-27T16:44:14.484Z,34.58
2023-04-27T16:46:42.266Z,34.49
2023-04-27T16:49:10.503Z,34.54
2023-04-27T16:51:37.747Z,34.65
2023-04-27T16:54:05.189Z,34.84
2023-04-27T16:56:35.023Z,34.78
2023-04-27T16:59:02.252Z,34.66
2023-04-27T17:01:31.306Z,34.88
2023-04-27T17:04:00.211Z,34.86
2023-04-27T17:06:28.228Z,34.94
2023-04-27T17:08:56.635Z,35.16
2023-04-27T17:11:24.891Z,35.06
2023-04-27T17:13:51.936Z,35.31
2023-04-27T17:16:22.343Z,35.27
2023-04-27T17:18:50.167Z,35.52
2023-04-27T17:21:22.234Z,35.59
2023-04-27T17:23:52.004Z,35.32
2023-04-27T17:26:23.272Z,35.10
2023-04-27T17:28:53.776Z,35.32
2023-04-27T17:31:24.271Z,35.27
2023-04-27T17:33:51.534Z,35.32
2023-04-27T17:36:19.556Z,35.52
2023-04-27T17:38:46.789Z,35.46
2023-04-27T17:41:13.828Z,35.86
2023-04-27T17:43:41.246Z,36.07
2023-04-27T17:46:13.769Z,36.36
2023-04-27T17:48:44.282Z,36.67
2023-04-27T17:51:11.612Z,37.16
2023-04-27T17:53:38.785Z,37.27
2023-04-27T17:56:05.863Z,37.63
2023-04-27T17:58:33.297Z,38.13
2023-04-27T18:01:00.377Z,38.57
2023-04-27T18:03:27.611Z,38.79
2023-04-27T18:05:54.999Z,39.00
2023-04-27T18:08:24.044Z,39.12
2023-04-27T18:10:51.415Z,39.35
2023-04-27T18:13:18.482Z,39.34
2023-04-27T18:15:46.341Z,39.52
2023-04-27T18:18:17.123Z,39.68
2023-04-27T18:20:50.385Z,39.74
2023-04-27T18:23:17.449Z,39.82
2023-04-27T18:25:45.005Z,39.81
2023-04-27T18:28:12.109Z,39.79
2023-04-27T18:30:39.183Z,39.85
2023-04-27T18:33:06.528Z,39.96
2023-04-27T18:35:33.677Z,40.13
2023-04-27T18:38:00.965Z,40.13
2023-04-27T18:40:28.347Z,40.08
2023-04-27T18:42:55.970Z,40.14
2023-04-27T18:45:23.260Z,40.31
2023-04-27T18:47:50.299Z,40.55
2023-04-27T18:50:17.770Z,40.38
2023-04-27T18:52:46.374Z,40.58
2023-04-27T18:55:14.640Z,40.48
2023-04-27T18:57:41.864Z,40.64
2023-04-27T19:00:11.395Z,40.55
2023-04-27T19:02:39.192Z,40.57
2023-04-27T19:05:14.372Z,40.46
2023-04-27T19:07:42.314Z,40.43
2023-04-27T19:10:10.361Z,40.23
2023-04-27T19:12:39.111Z,40.16
2023-04-27T19:15:06.593Z,40.13
2023-04-27T19:17:41.243Z,40.22
2023-04-27T19:20:09.500Z,40.27
2023-04-27T19:22:37.275Z,40.26
2023-04-27T19:25:05.106Z,40.39
2023-04-27T19:27:32.682Z,40.48
2023-04-27T19:29:59.766Z,40.87
2023-04-27T19:32:27.859Z,40.90
2023-04-27T19:34:58.867Z,40.90
2023-04-27T19:37:28.684Z,40.99
2023-04-27T19:39:57.028Z,41.16
2023-04-27T19:42:27.782Z,41.22
2023-04-27T19:44:56.021Z,41.58
2023-04-27T19:47:24.270Z,41.57
2023-04-27T19:49:51.475Z,41.79
2023-04-27T19:52:18.566Z,41.66
2023-04-27T19:54:51.690Z,41.73
2023-04-27T19:57:18.963Z,41.70
2023-04-27T19:59:46.119Z,41.97
2023-04-27T20:02:13.374Z,42.13
2023-04-27T20:04:41.743Z,42.28
2023-04-27T20:07:09.291Z,42.32
2023-04-27T20:09:36.408Z,42.54
2023-04-27T20:12:04.372Z,42.56
2023-04-27T20:14:33.909Z,42.57
2023-04-27T20:17:02.666Z,42.74
2023-04-27T20:19:30.357Z,42.83
2023-04-27T20:21:57.613Z,42.90
2023-04-27T20:24:24.697Z,42.78
2023-04-27T20:26:51.703Z,43.01
2023-04-27T20:29:19.108Z,42.88
2023-04-27T20:31:46.568Z,43.05
2023-04-27T20:34:14.119Z,42.80
2023-04-27T20:36:41.703Z,43.16
2023-04-27T20:39:09.236Z,43.05
2023-04-27T20:41:36.442Z,42.96
2023-04-27T20:44:03.903Z,43.20
2023-04-27T20:46:31.432Z,43.31
2023-04-27T20:48:58.537Z,43.33
2023-04-27T20:51:26.588Z,43.53
2023-04-27T20:53:53.843Z,43.52
2023-04-27T20:56:20.957Z,43.57
2023-04-27T20:58:48.150Z,43.77
2023-04-27T21:01:15.278Z,43.95
2023-04-27T21:03:42.566Z,43.76
2023-04-27T21:06:09.964Z,43.98
2023-04-27T21:08:37.756Z,43.94
2023-04-27T21:11:05.245Z,43.87
2023-04-27T21:13:32.412Z,43.89
2023-04-27T21:15:59.529Z,44.04
2023-04-27T21:18:30.432Z,44.01
2023-04-27T21:20:58.176Z,43.79
2023-04-27T21:23:25.401Z,43.93
2023-04-27T21:25:52.581Z,44.02
2023-04-27T21:28:19.771Z,44.10
2023-04-27T21:30:46.921Z,44.16
2023-04-27T21:33:14.046Z,44.10
2023-04-27T21:35:41.354Z,44.13
2023-04-27T21:38:08.531Z,44.24
2023-04-27T21:40:35.550Z,43.79
2023-04-27T21:43:02.932Z,43.83
2023-04-27T21:45:29.976Z,43.95
2023-04-27T21:47:57.036Z,44.13
2023-04-27T21:50:24.464Z,44.16
2023-04-27T21:52:51.470Z,44.26
2023-04-27T21:55:18.530Z,44.17
2023-04-27T21:57:45.779Z,44.07
2023-04-27T22:00:13.954Z,43.95
2023-04-27T22:02:48.685Z,43.99
2023-04-27T22:05:16.682Z,44.04
2023-04-27T22:07:46.148Z,44.15
2023-04-27T22:10:13.784Z,44.13
2023-04-27T22:12:40.857Z,44.30
2023-04-27T22:15:08.503Z,44.26
2023-04-27T22:17:35.852Z,44.02
2023-04-27T22:20:05.188Z,44.13
2023-04-27T22:22:32.246Z,44.24
2023-04-27T22:24:59.546Z,44.34
2023-04-27T22:27:35.134Z,44.29
2023-04-27T22:30:06.843Z,44.22
2023-04-27T22:32:34.265Z,44.39
2023-04-27T22:35:02.202Z,44.41
2023-04-27T22:37:29.766Z,44.17
2023-04-27T22:39:57.606Z,44.30
2023-04-27T22:42:24.761Z,44.28
2023-04-27T22:44:51.838Z,44.43
2023-04-27T22:47:18.910Z,44.54
2023-04-27T22:49:47.272Z,44.49
2023-04-27T22:52:14.537Z,44.43
2023-04-27T22:54:41.544Z,44.32
2023-04-27T22:57:08.619Z,44.53
2023-04-27T22:59:35.631Z,44.59
2023-04-27T23:02:02.746Z,44.58
2023-04-27T23:04:29.864Z,44.56
2023-04-27T23:06:57.799Z,44.84
2023-04-27T23:09:24.861Z,44.95
2023-04-27T23:11:51.936Z,44.95
2023-04-27T23:14:19.081Z,44.94
2023-04-27T23:16:48.981Z,45.19
2023-04-27T23:19:16.117Z,45.28
2023-04-27T23:21:43.140Z,45.22
2023-04-27T23:24:10.267Z,45.28
2023-04-27T23:26:37.341Z,45.25
2023-04-27T23:29:04.840Z,45.22
2023-04-27T23:31:32.221Z,45.34
2023-04-27T23:33:59.812Z,45.31
2023-04-27T23:36:26.969Z,45.62
2023-04-27T23:38:54.115Z,45.60
2023-04-27T23:41:21.300Z,45.75
2023-04-27T23:43:48.517Z,45.93
2023-04-27T23:46:15.659Z,46.19
2023-04-27T23:48:42.670Z,46.22
2023-04-27T23:51:09.732Z,46.57
2023-04-27T23:53:36.807Z,46.86
2023-04-27T23:56:03.858Z,46.77
2023-04-27T23:58:31.239Z,47.01
